デンパサール国際空港の過去48時間の天気

デンパサール国際空港 (Ngurah Rai International Airport)

現在時刻: 4/22 21:02 WITA (4/22 13:02 UTC) 以下の時間は現地時間です。

過去48時間のMETAR気象情報
時間 風向 風速(m/s) 視程 気温(℃) 湿度(%) 気圧(hPa) 天気現象
22 20:30 東南東 6 10km以上 28 89 1009
22 20:00 東南東 6 10km以上 28 89 1009
22 19:30 5 10km以上 28 89 1008
22 19:00 5 10km以上 28 89 1008
22 18:30 5 10km以上 28 89 1008
22 18:00 東南東 6 10km以上 29 84 1007
22 17:30 東南東 7 10km以上 29 84 1007
22 17:00 東南東 9 10km以上 29 84 1007
22 16:30 東南東 7 10km以上 30 79 1006
22 16:00 9 10km以上 30 79 1006
22 15:30 東南東 9 10km以上 30 79 1006
22 15:00 - - 10km以上 30 79 1006
22 14:30 東南東 9 10km以上 30 75 1006
22 14:00 東南東 8 10km以上 30 75 1007
22 13:30 東南東 8 10km以上 30 79 1007
22 13:00 東南東 10 10km以上 30 75 1007
22 12:30 東南東 9 10km以上 30 79 1008
22 12:00 東南東 9 10km以上 30 75 1008
22 11:30 8 10km以上 30 70 1008
22 11:00 8 10km以上 30 75 1008
22 10:30 7 10km以上 30 75 1009
22 10:00 7 10km以上 29 79 1009
22 09:30 東南東 5 10km以上 29 79 1009
22 09:00 東南東 4 10km以上 29 84 1009
22 08:30 4 10km以上 28 89 1009
22 08:00 東北東 3 10km以上 28 84 1009
22 07:30 3 10km以上 27 89 1009
22 07:00 東北東 3 10km以上 26 94 1008
22 06:30 東北東 2 10km以上 26 89 1008
22 06:00 東北東 2 10km以上 26 94 1008
22 05:30 東北東 2 10km以上 26 94 1008
22 05:00 2 10km以上 27 89 1008
22 04:30 3 10km以上 26 94 1007
22 04:00 北東 3 10km以上 26 94 1007
22 03:30 2 10km以上 27 89 1008
22 03:00 3 10km以上 27 94 1008
22 02:30 4 10km以上 27 94 1008
22 02:00 4 10km以上 27 94 1008
22 01:30 5 10km以上 28 89 1008
22 01:00 東南東 5 10km以上 28 89 1009
22 00:30 東南東 5 10km以上 28 89 1009
22 00:00 東南東 5 10km以上 28 89 1009
21 23:30 東南東 6 10km以上 28 89 1009
21 23:00 6 10km以上 28 89 1009
21 22:30 東南東 7 10km以上 28 89 1009
21 22:00 東南東 6 10km以上 28 84 1009
21 21:30 東南東 6 10km以上 28 84 1009
21 21:00 東南東 6 10km以上 28 84 1009
21 20:30 東南東 5 10km以上 28 89 1008
21 20:00 東南東 5 10km以上 28 84 1008
21 19:30 5 10km以上 28 84 1008
21 19:00 東南東 6 10km以上 28 84 1007
21 18:30 東南東 6 10km以上 28 84 1007
21 18:00 東南東 7 10km以上 29 79 1006
21 17:30 東南東 9 10km以上 29 79 1006
21 17:00 東南東 9 10km以上 30 75 1006
21 16:30 東南東 9 10km以上 30 75 1006
21 16:00 東南東 9 10km以上 30 75 1006
21 15:30 東南東 9 10km以上 30 75 1006
21 15:00 東南東 11 10km以上 30 75 1006
21 14:30 東南東 10 10km以上 30 75 1006
21 14:00 東南東 9 10km以上 31 66 1007
21 13:30 東南東 8 10km以上 30 75 1007
21 13:00 東南東 9 10km以上 30 75 1008
21 12:30 8 10km以上 30 75 1008
21 12:00 東南東 9 10km以上 30 75 1008
21 11:30 8 10km以上 30 75 1009
21 11:00 6 10km以上 30 79 1009
21 10:30 6 10km以上 30 79 1010
21 10:00 5 10km以上 30 79 1010 火山灰
21 09:30 5 10km以上 30 79 1010 火山灰
21 09:00 東北東 4 10km以上 29 79 1010
21 08:30 東北東 3 10km以上 28 84 1010
21 08:00 北東 4 10km以上 27 89 1009
21 07:30 北東 4 9000m 27 89 1009
21 07:00 北東 3 9000m 26 94 1009
21 06:30 2 9000m 25 94 1008
21 06:00 東北東 1 10km以上 25 94 1008
21 05:30 北東 2 10km以上 25 94 1008
21 05:00 北東 2 10km以上 25 94 1008
21 04:30 - - 10km以上 26 89 1008
21 04:00 - - 10km以上 26 89 1008
21 03:30 東北東 2 10km以上 26 94 1009
21 03:00 北北東 2 10km以上 26 94 1009
21 02:30 北東 3 10km以上 27 89 1009
21 02:00 北東 3 10km以上 27 89 1009
21 01:30 東北東 2 10km以上 27 94 1009
21 01:00 東南東 2 10km以上 28 89 1010
21 00:30 東南東 2 10km以上 28 89 1010
21 00:00 2 10km以上 28 89 1010
20 23:30 3 10km以上 28 89 1010
20 23:00 3 10km以上 27 84 1010
20 22:30 4 10km以上 27 84 1011
20 22:00 4 10km以上 27 89 1011
20 21:30 5 6000m 28 89 1010 弱い雨
WADD 221230Z 11011KT 9999 FEW017 28/26 Q1009 NOSIG
WADD 221200Z 11011KT 9999 FEW017 28/26 Q1009 NOSIG
WADD 221130Z 10009KT 9999 FEW017 28/26 Q1008 NOSIG
WADD 221100Z 10009KT 9999 FEW017 28/26 Q1008 NOSIG
WADD 221030Z 10010KT 9999 FEW017 28/26 Q1008 NOSIG
WADD 221000Z 11011KT 9999 FEW017 29/26 Q1007 NOSIG
WADD 220930Z 11013KT 9999 FEW017 29/26 Q1007 NOSIG
WADD 220900Z 11017KT 9999 FEW017 29/26 Q1007 NOSIG
WADD 220830Z 11014KT 9999 FEW017 30/26 Q1006 NOSIG
WADD 220800Z 10017KT 9999 FEW017 30/26 Q1006 NOSIG
WADD 220730Z 11018KT 9999 FEW017 30/26 Q1006 NOSIG
WADD 220700Z 1101KT 9999 FEW017 30/26 Q1006 NOSIG
WADD 220630Z 11017KT 9999 FEW017 30/25 Q1006 NOSIG
WADD 220600Z 11016KT 9999 FEW017 30/25 Q1007 NOSIG
WADD 220530Z 11016KT 9999 FEW017 30/26 Q1007 NOSIG
WADD 220500Z 11019KT 9999 FEW017 30/25 Q1007 NOSIG
WADD 220430Z 11017KT 9999 FEW017 30/26 Q1008 NOSIG
WADD 220400Z 11017KT 9999 FEW017 30/25 Q1008 NOSIG
WADD 220330Z 10015KT 9999 FEW017 30/24 Q1008 NOSIG
WADD 220300Z 10016KT 9999 FEW017 30/25 Q1008 NOSIG
WADD 220230Z 10014KT 9999 FEW017 30/25 Q1009 NOSIG
WADD 220200Z 10013KT 9999 FEW017 29/25 Q1009 NOSIG
WADD 220130Z 11010KT 9999 FEW017 29/25 Q1009 NOSIG
WADD 220100Z 11008KT 9999 FEW017 29/26 Q1009 NOSIG
WADD 220030Z 09007KT 9999 FEW017 28/26 Q1009 NOSIG
WADD 220000Z 07005KT 9999 FEW017 28/25 Q1009 NOSIG
WADD 212330Z 09006KT 9999 FEW017 27/25 Q1009 NOSIG
WADD 212300Z 06005KT 9999 FEW017 26/25 Q1008 NOSIG
WADD 212230Z 06004KT 9999 FEW017 26/24 Q1008 NOSIG
WADD 212200Z 06003KT 9999 FEW017 26/25 Q1008 NOSIG
WADD 212130Z 06003KT 9999 FEW017 26/25 Q1008 NOSIG
WADD 212100Z 10004KT 9999 FEW017 27/25 Q1008 NOSIG
WADD 212030Z 08005KT 9999 FEW017 26/25 Q1007 NOSIG
WADD 212000Z 05005KT 9999 FEW017 26/25 Q1007 NOSIG
WADD 211930Z 08004KT 9999 FEW017 27/25 Q1008 NOSIG
WADD 211900Z 10006KT 9999 FEW017 27/26 Q1008 NOSIG
WADD 211830Z 09007KT 9999 FEW017 27/26 Q1008 NOSIG
WADD 211800Z 09008KT 9999 FEW017 27/26 Q1008 NOSIG
WADD 211730Z 10009KT 9999 FEW017 28/26 Q1008 NOSIG
WADD 211700Z 11010KT 9999 FEW017 28/26 Q1009 NOSIG
WADD 211630Z 11010KT 9999 FEW017 28/26 Q1009 NOSIG
WADD 211600Z 11009KT 9999 FEW017 28/26 Q1009 NOSIG
WADD 211530Z 11012KT 9999 FEW017 28/26 Q1009 NOSIG
WADD 211500Z 10012KT 9999 FEW017 28/26 Q1009 NOSIG
WADD 211430Z 12013KT 9999 FEW017 28/26 Q1009 NOSIG
WADD 211400Z 11012KT 9999 FEW017 28/25 Q1009 NOSIG
WADD 211330Z 11012KT 9999 FEW017 28/25 Q1009 NOSIG
WADD 211300Z 11011KT 9999 FEW017 28/25 Q1009 NOSIG
WADD 211230Z 12010KT 9999 FEW017 28/26 Q1008 NOSIG
WADD 211200Z 11009KT 9999 FEW017 28/25 Q1008 NOSIG
WADD 211130Z 10009KT 9999 FEW017 28/25 Q1008 NOSIG
WADD 211100Z 11011KT 9999 FEW017 28/25 Q1007 NOSIG
WADD 211030Z 11011KT 9999 FEW017 28/25 Q1007 NOSIG
WADD 211000Z 11013KT 9999 FEW017 29/25 Q1006 NOSIG
WADD 210930Z 11017KT 9999 FEW017 29/25 Q1006 NOSIG
WADD 210900Z 11017KT 9999 FEW017 30/25 Q1006 NOSIG
WADD 210830Z 11018KT 9999 FEW017 30/25 Q1006 NOSIG
WADD 210800Z 11017KT 9999 FEW017 30/25 Q1006 NOSIG
WADD 210730Z 11018KT 9999 FEW017 30/25 Q1006 NOSIG
WADD 210700Z 11021KT 9999 FEW017 30/25 Q1006 NOSIG
WADD 210630Z 12019KT 9999 FEW017 30/25 Q1006 NOSIG
WADD 210600Z 11017KT 9999 FEW017 31/24 Q1007 NOSIG
WADD 210530Z 11016KT 9999 FEW017 30/25 Q1007 NOSIG
WADD 210500Z 11017KT 9999 FEW017 30/25 Q1008 NOSIG
WADD 210430Z 10016KT 9999 FEW017 30/25 Q1008 NOSIG
WADD 210400Z 11017KT 9999 SCT016 30/25 Q1008 NOSIG
WADD 210330Z 10015KT 9999 SCT016 30/25 Q1009 NOSIG
WADD 210300Z 09012KT 9999 SCT016 30/26 Q1009 NOSIG
WADD 210230Z 09011KT 9999 SCT016 30/26 Q1010 REVA NOSIG
WADD 210200Z 08009KT 9999 VA SCT016 30/26 Q1010 TEMPO TL0330 VA
WADD 210130Z 08009KT 9999 VA SCT016 30/26 Q1010 TEMPO TL0330 VA
WADD 210100Z 06008KT 9999 SCT016 29/25 Q1010 NOSIG
WADD 210030Z 06006KT 9999 BKN016 28/25 Q1010 NOSIG
WADD 210000Z 05008KT 9999 BKN016 27/25 Q1009 NOSIG
WADD 202330Z 05007KT 9000 BKN016 27/25 Q1009 NOSIG
WADD 202300Z 05005KT 9000 SCT016 26/25 Q1009 NOSIG
WADD 202230Z 08004KT 9000 BKN017 25/24 Q1008 NOSIG
WADD 202200Z 06002KT 9999 SCT017 25/24 Q1008 NOSIG
WADD 202130Z 04003KT 9999 SCT017 25/24 Q1008 NOSIG
WADD 202100Z 05003KT 9999 FEW017 25/24 Q1008 NOSIG
WADD 202030Z AUTO /////KT ///V/// 9999 // NCD 26/24 Q1008 NOSIG
WADD 202000Z AUTO /////KT ///V/// 9999 // NCD 26/24 Q1008 NOSIG
WADD 201930Z 06003KT 9999 FEW017 26/25 Q1009 NOSIG
WADD 201900Z 03003KT 9999 FEW017 26/25 Q1009 NOSIG
WADD 201830Z 05005KT 9999 FEW017 27/25 Q1009 NOSIG
WADD 201800Z 04005KT 9999 FEW017 27/25 Q1009 NOSIG
WADD 201730Z 07004KT 030V110 9999 BKN017 27/26 Q1009 NOSIG
WADD 201700Z 11004KT 070V140 9999 SCT017 28/26 Q1010 NOSIG
WADD 201630Z 11004KT 9999 SCT017 28/26 Q1010 NOSIG
WADD 201600Z 10003KT 9999 SCT017 28/26 Q1010 NOSIG
WADD 201530Z 09005KT 9999 SCT017 28/26 Q1010 NOSIG
WADD 201500Z 09005KT 9999 SCT016 27/24 Q1010 NOSIG
WADD 201430Z 10007KT 9999 SCT016 27/24 Q1011 NOSIG
WADD 201400Z 09007KT 9999 SCT016 27/25 Q1011 RERA NOSIG
WADD 201330Z 08009KT 6000 -RA BKN015 28/26 Q1010 TEMPO TL1430 6000 -RA